Airfield :
LOGIN :

Register | Disclaimer

   EN    FR    IT 

 










Legend :    VFR   Marginal VFR   IFR   Intensive IFR   Very Intensive IFR
Visi :
Ceiling :
>= 8 km
>= 3000ft
5 to 8 km
1000 to 3000 ft
1500m to 5 km
500 to 1000 ft
800 to 1500m
200 to 500 ft
< 800m
< 200 ft
Symbols :   Thunderstorms  Fog  Heavy snow  Heavy precipitations  Wind > 20 kt
SIGMETs :     Misc.  Thunderstorms  Icing  Turbulence  Mountain Waves  Volcanic Ashes







- Airport Elevation : 81 ft
- IATA code : SCS
- Download approach charts


EGPM - Scatsta

CURRENT METAR :
  • 160150Z AUTO 26013KT 9999 FEW020/// SCT039/// 10/07 Q1013

EXPIRED METARs :
  • 160120Z AUTO 26014KT 9999 SCT021/// SCT040/// 10/06 Q1013
  • 160050Z AUTO 26014KT 9999 SCT023/// SCT039/// 10/06 Q1014
  • 160020Z AUTO 26015KT 9999 SCT029/// 09/06 Q1014
  • 152350Z AUTO 26013KT 9999 SCT023/// 09/06 Q1014
  • 152320Z AUTO 26015KT 9999 FEW024/// SCT032/// 10/06 Q1014

TAF TAF EGPM
Valid from the 15 at 18:00 until the 16 at 03:00 UTC


151702Z 1518/1603 28020G35KT 9999 FEW012 SCT025
BECMG 1518/1521 27014KT
TEMPO 1518/1603 6000 SHRA
PROB30
TEMPO 1518/1603 4000 +SHRA BKN012
PROB30
TEMPO 1521/1603 26017G27KT
No reported NOTAMs for that airfield.



MET'MAP, your aeronautical weather chart ! - Copyright ORBIFLY December 2007 - Disclaimer

ORBIFLY MET'MAP TEAM :

Programming & Development : Alexandra Zaïnal
Concept & Development : Baudouin d'Aumeries
Co-Development & Prog : Marc-Olivier Méhu
Technical & hardware support : Manuel Goepfert

Contact : metmap@orbifly.com




SOURCES & CREDITS :

   NOAA